sensor_id;sensor_type;location;lat;lon;timestamp;temperature;humidity
42187;DHT22;27858;51.414;0.018;2023-03-29T04:01:10;9.50;99.90
42187;DHT22;27858;51.414;0.018;2023-03-29T04:03:37;9.50;99.90
42187;DHT22;27858;51.414;0.018;2023-03-29T04:06:05;9.60;99.90
42187;DHT22;27858;51.414;0.018;2023-03-29T04:08:31;9.60;99.90
42187;DHT22;27858;51.414;0.018;2023-03-29T04:10:58;9.70;99.90
42187;DHT22;27858;51.414;0.018;2023-03-29T04:13:26;9.50;99.90
42187;DHT22;27858;51.414;0.018;2023-03-29T04:15:53;9.50;99.90
42187;DHT22;27858;51.414;0.018;2023-03-29T04:18:25;9.50;99.90
42187;DHT22;27858;51.414;0.018;2023-03-29T04:20:53;9.60;99.90
42187;DHT22;27858;51.414;0.018;2023-03-29T04:23:19;9.50;99.90
42187;DHT22;27858;51.414;0.018;2023-03-29T04:25:46;9.80;99.90
42187;DHT22;27858;51.414;0.018;2023-03-29T04:28:13;9.50;99.90
42187;DHT22;27858;51.414;0.018;2023-03-29T04:30:41;9.50;99.90
42187;DHT22;27858;51.414;0.018;2023-03-29T04:33:08;9.80;99.90
42187;DHT22;27858;51.414;0.018;2023-03-29T04:35:35;9.80;99.90
42187;DHT22;27858;51.414;0.018;2023-03-29T04:38:03;9.50;99.90
42187;DHT22;27858;51.414;0.018;2023-03-29T04:40:30;9.80;99.90
42187;DHT22;27858;51.414;0.018;2023-03-29T04:42:57;9.50;99.90
42187;DHT22;27858;51.414;0.018;2023-03-29T04:45:25;9.80;99.90
42187;DHT22;27858;51.414;0.018;2023-03-29T04:47:55;9.50;99.90
42187;DHT22;27858;51.414;0.018;2023-03-29T04:50:22;9.70;99.90
42187;DHT22;27858;51.414;0.018;2023-03-29T04:52:48;9.50;99.90
42187;DHT22;27858;51.414;0.018;2023-03-29T04:55:16;9.50;99.90
42187;DHT22;27858;51.414;0.018;2023-03-29T04:57:43;9.60;99.90
42187;DHT22;27858;51.414;0.018;2023-03-29T05:00:13;9.50;99.90
42187;DHT22;27858;51.414;0.018;2023-03-29T05:02:44;9.60;99.90
42187;DHT22;27858;51.414;0.018;2023-03-29T05:05:11;9.70;99.90
42187;DHT22;27858;51.414;0.018;2023-03-29T05:07:38;9.80;99.90
42187;DHT22;27858;51.414;0.018;2023-03-29T05:10:05;9.60;99.90
42187;DHT22;27858;51.414;0.018;2023-03-29T05:12:32;9.60;99.90
42187;DHT22;27858;51.414;0.018;2023-03-29T05:14:59;9.80;99.90
42187;DHT22;27858;51.414;0.018;2023-03-29T05:17:26;9.60;99.90
42187;DHT22;27858;51.414;0.018;2023-03-29T05:19:53;9.80;99.90
42187;DHT22;27858;51.414;0.018;2023-03-29T05:22:20;9.70;99.90
42187;DHT22;27858;51.414;0.018;2023-03-29T05:24:47;9.50;99.90
42187;DHT22;27858;51.414;0.018;2023-03-29T05:27:14;9.50;99.90
42187;DHT22;27858;51.414;0.018;2023-03-29T05:29:42;9.80;99.90
42187;DHT22;27858;51.414;0.018;2023-03-29T05:32:10;9.70;99.90
42187;DHT22;27858;51.414;0.018;2023-03-29T05:34:37;9.60;99.90
42187;DHT22;27858;51.414;0.018;2023-03-29T05:37:04;9.50;99.90
42187;DHT22;27858;51.414;0.018;2023-03-29T05:39:31;9.60;99.90
42187;DHT22;27858;51.414;0.018;2023-03-29T05:42:03;9.80;99.90
42187;DHT22;27858;51.414;0.018;2023-03-29T05:44:30;9.70;99.90
42187;DHT22;27858;51.414;0.018;2023-03-29T05:46:57;9.60;99.90
42187;DHT22;27858;51.414;0.018;2023-03-29T05:49:24;9.50;99.90
42187;DHT22;27858;51.414;0.018;2023-03-29T05:51:51;9.70;99.90
42187;DHT22;27858;51.414;0.018;2023-03-29T05:54:17;9.50;99.90
42187;DHT22;27858;51.414;0.018;2023-03-29T05:56:44;9.40;99.90
42187;DHT22;27858;51.414;0.018;2023-03-29T05:59:11;9.60;99.90
42187;DHT22;27858;51.414;0.018;2023-03-29T06:01:39;9.70;99.90
42187;DHT22;27858;51.414;0.018;2023-03-29T06:04:07;9.70;99.90
42187;DHT22;27858;51.414;0.018;2023-03-29T06:06:34;9.60;99.90
42187;DHT22;27858;51.414;0.018;2023-03-29T06:09:02;9.60;99.90
42187;DHT22;27858;51.414;0.018;2023-03-29T06:11:29;9.90;99.90
42187;DHT22;27858;51.414;0.018;2023-03-29T06:13:57;9.70;99.90
42187;DHT22;27858;51.414;0.018;2023-03-29T06:16:24;9.60;99.90
42187;DHT22;27858;51.414;0.018;2023-03-29T06:18:51;9.90;99.90
42187;DHT22;27858;51.414;0.018;2023-03-29T06:21:18;9.70;99.90
42187;DHT22;27858;51.414;0.018;2023-03-29T06:23:45;9.90;99.90
42187;DHT22;27858;51.414;0.018;2023-03-29T06:26:13;10.10;99.90
42187;DHT22;27858;51.414;0.018;2023-03-29T06:28:39;9.70;99.90
42187;DHT22;27858;51.414;0.018;2023-03-29T06:31:07;9.80;99.90
42187;DHT22;27858;51.414;0.018;2023-03-29T06:33:35;9.90;99.90
42187;DHT22;27858;51.414;0.018;2023-03-29T06:36:03;9.90;99.90
42187;DHT22;27858;51.414;0.018;2023-03-29T06:38:30;10.10;99.90
42187;DHT22;27858;51.414;0.018;2023-03-29T06:41:05;10.10;99.90
42187;DHT22;27858;51.414;0.018;2023-03-29T06:43:33;10.00;99.90
42187;DHT22;27858;51.414;0.018;2023-03-29T06:46:00;10.40;99.90
42187;DHT22;27858;51.414;0.018;2023-03-29T06:48:27;10.50;99.90
42187;DHT22;27858;51.414;0.018;2023-03-29T06:50:54;10.50;99.90
42187;DHT22;27858;51.414;0.018;2023-03-29T06:53:21;10.30;99.90
42187;DHT22;27858;51.414;0.018;2023-03-29T06:55:49;10.30;99.90
42187;DHT22;27858;51.414;0.018;2023-03-29T06:58:17;10.40;99.90
42187;DHT22;27858;51.414;0.018;2023-03-29T07:00:44;10.70;99.90
42187;DHT22;27858;51.414;0.018;2023-03-29T07:03:11;10.80;99.90
42187;DHT22;27858;51.414;0.018;2023-03-29T07:05:46;10.80;99.90
42187;DHT22;27858;51.414;0.018;2023-03-29T07:08:13;10.60;99.90
42187;DHT22;27858;51.414;0.018;2023-03-29T07:10:44;11.00;99.90
42187;DHT22;27858;51.414;0.018;2023-03-29T07:13:11;10.80;99.90
42187;DHT22;27858;51.414;0.018;2023-03-29T07:15:40;10.70;99.90
42187;DHT22;27858;51.414;0.018;2023-03-29T07:18:08;10.80;99.90
42187;DHT22;27858;51.414;0.018;2023-03-29T07:20:35;10.60;99.90
42187;DHT22;27858;51.414;0.018;2023-03-29T07:23:05;10.60;99.90
42187;DHT22;27858;51.414;0.018;2023-03-29T07:25:32;10.60;99.90
42187;DHT22;27858;51.414;0.018;2023-03-29T07:27:59;10.70;99.90
42187;DHT22;27858;51.414;0.018;2023-03-29T07:30:27;10.60;99.90
42187;DHT22;27858;51.414;0.018;2023-03-29T07:32:57;10.60;99.90
42187;DHT22;27858;51.414;0.018;2023-03-29T07:35:26;10.80;99.90
42187;DHT22;27858;51.414;0.018;2023-03-29T07:37:53;10.80;99.90
42187;DHT22;27858;51.414;0.018;2023-03-29T07:40:24;10.60;99.90
42187;DHT22;27858;51.414;0.018;2023-03-29T07:42:53;10.70;99.90
42187;DHT22;27858;51.414;0.018;2023-03-29T07:45:23;10.90;99.90
42187;DHT22;27858;51.414;0.018;2023-03-29T07:47:54;10.70;99.90
42187;DHT22;27858;51.414;0.018;2023-03-29T07:50:22;10.70;99.90
42187;DHT22;27858;51.414;0.018;2023-03-29T07:52:49;11.00;99.90
42187;DHT22;27858;51.414;0.018;2023-03-29T07:55:17;11.00;99.90
42187;DHT22;27858;51.414;0.018;2023-03-29T07:57:44;11.20;99.90
42187;DHT22;27858;51.414;0.018;2023-03-29T08:00:12;11.10;99.90
42187;DHT22;27858;51.414;0.018;2023-03-29T08:02:43;11.10;99.90
42187;DHT22;27858;51.414;0.018;2023-03-29T08:05:13;11.30;99.90
42187;DHT22;27858;51.414;0.018;2023-03-29T08:07:45;11.30;99.90
42187;DHT22;27858;51.414;0.018;2023-03-29T08:10:14;11.50;99.90
42187;DHT22;27858;51.414;0.018;2023-03-29T08:12:42;11.50;99.90
42187;DHT22;27858;51.414;0.018;2023-03-29T08:15:09;11.60;99.90
42187;DHT22;27858;51.414;0.018;2023-03-29T08:17:37;11.70;99.90
42187;DHT22;27858;51.414;0.018;2023-03-29T08:20:05;11.70;99.90
42187;DHT22;27858;51.414;0.018;2023-03-29T08:22:33;11.50;99.90
42187;DHT22;27858;51.414;0.018;2023-03-29T08:25:01;11.80;99.90
42187;DHT22;27858;51.414;0.018;2023-03-29T08:27:29;11.60;99.90
42187;DHT22;27858;51.414;0.018;2023-03-29T08:29:56;11.70;99.90
42187;DHT22;27858;51.414;0.018;2023-03-29T08:32:23;11.90;99.90
42187;DHT22;27858;51.414;0.018;2023-03-29T08:34:50;11.70;99.90
42187;DHT22;27858;51.414;0.018;2023-03-29T08:37:17;11.90;99.90
42187;DHT22;27858;51.414;0.018;2023-03-29T08:39:44;11.70;99.90
42187;DHT22;27858;51.414;0.018;2023-03-29T08:50:10;11.70;99.90
42187;DHT22;27858;51.414;0.018;2023-03-29T08:52:49;11.50;99.90
42187;DHT22;27858;51.414;0.018;2023-03-29T08:55:32;11.50;99.90
42187;DHT22;27858;51.414;0.018;2023-03-29T08:58:02;11.80;99.90
42187;DHT22;27858;51.414;0.018;2023-03-29T09:00:47;11.80;99.90
42187;DHT22;27858;51.414;0.018;2023-03-29T09:03:26;11.50;99.90
42187;DHT22;27858;51.414;0.018;2023-03-29T09:05:59;11.60;99.90
42187;DHT22;27858;51.414;0.018;2023-03-29T09:08:28;11.80;99.90
42187;DHT22;27858;51.414;0.018;2023-03-29T09:16:18;12.00;99.90
42187;DHT22;27858;51.414;0.018;2023-03-29T09:21:21;12.00;99.90
42187;DHT22;27858;51.414;0.018;2023-03-29T09:26:26;12.10;99.90
42187;DHT22;27858;51.414;0.018;2023-03-29T09:31:34;12.20;99.90
42187;DHT22;27858;51.414;0.018;2023-03-29T09:36:48;11.90;99.90
42187;DHT22;27858;51.414;0.018;2023-03-29T09:39:19;12.10;99.90
42187;DHT22;27858;51.414;0.018;2023-03-29T09:44:24;12.40;99.90
42187;DHT22;27858;51.414;0.018;2023-03-29T09:47:01;12.10;99.90
42187;DHT22;27858;51.414;0.018;2023-03-29T09:49:33;12.40;99.90
42187;DHT22;27858;51.414;0.018;2023-03-29T09:52:05;12.20;99.90
42187;DHT22;27858;51.414;0.018;2023-03-29T09:54:34;12.20;99.90
42187;DHT22;27858;51.414;0.018;2023-03-29T09:57:01;12.40;99.90
42187;DHT22;27858;51.414;0.018;2023-03-29T09:59:29;12.50;99.90
42187;DHT22;27858;51.414;0.018;2023-03-29T10:02:07;12.60;99.90
42187;DHT22;27858;51.414;0.018;2023-03-29T10:04:35;12.60;99.90
42187;DHT22;27858;51.414;0.018;2023-03-29T10:07:02;12.80;99.90
42187;DHT22;27858;51.414;0.018;2023-03-29T10:09:31;12.70;99.90
42187;DHT22;27858;51.414;0.018;2023-03-29T10:12:00;12.60;99.90
42187;DHT22;27858;51.414;0.018;2023-03-29T10:14:48;12.80;99.90
42187;DHT22;27858;51.414;0.018;2023-03-29T10:17:21;12.90;99.90
42187;DHT22;27858;51.414;0.018;2023-03-29T10:19:56;12.80;99.90
42187;DHT22;27858;51.414;0.018;2023-03-29T10:22:32;12.70;99.90
42187;DHT22;27858;51.414;0.018;2023-03-29T10:25:00;12.90;99.90
42187;DHT22;27858;51.414;0.018;2023-03-29T10:27:30;13.10;99.90
42187;DHT22;27858;51.414;0.018;2023-03-29T10:29:59;12.80;99.90
42187;DHT22;27858;51.414;0.018;2023-03-29T10:32:32;12.90;99.90
42187;DHT22;27858;51.414;0.018;2023-03-29T10:35:08;13.00;99.90
42187;DHT22;27858;51.414;0.018;2023-03-29T10:37:40;13.20;99.90
42187;DHT22;27858;51.414;0.018;2023-03-29T10:40:19;12.80;99.90
42187;DHT22;27858;51.414;0.018;2023-03-29T10:42:48;12.90;99.90
42187;DHT22;27858;51.414;0.018;2023-03-29T10:45:36;12.70;99.90
42187;DHT22;27858;51.414;0.018;2023-03-29T10:48:04;12.80;99.90
42187;DHT22;27858;51.414;0.018;2023-03-29T10:50:35;12.70;99.90
42187;DHT22;27858;51.414;0.018;2023-03-29T10:53:14;12.70;99.90
42187;DHT22;27858;51.414;0.018;2023-03-29T10:55:52;12.70;99.90
42187;DHT22;27858;51.414;0.018;2023-03-29T11:00:56;12.80;99.90
42187;DHT22;27858;51.414;0.018;2023-03-29T11:12:10;12.60;99.90
42187;DHT22;27858;51.414;0.018;2023-03-29T11:17:34;13.00;99.90
42187;DHT22;27858;51.414;0.018;2023-03-29T11:25:48;13.00;99.90
42187;DHT22;27858;51.414;0.018;2023-03-29T11:28:33;12.60;99.90
42187;DHT22;27858;51.414;0.018;2023-03-29T11:31:12;12.90;99.90
42187;DHT22;27858;51.414;0.018;2023-03-29T11:39:27;13.10;99.90
42187;DHT22;27858;51.414;0.018;2023-03-29T11:45:05;13.40;99.90
42187;DHT22;27858;51.414;0.018;2023-03-29T11:47:42;13.20;99.90
42187;DHT22;27858;51.414;0.018;2023-03-29T11:50:22;13.30;99.90
42187;DHT22;27858;51.414;0.018;2023-03-29T11:53:02;13.30;99.90
42187;DHT22;27858;51.414;0.018;2023-03-29T11:55:37;13.60;99.90
42187;DHT22;27858;51.414;0.018;2023-03-29T12:00:53;13.30;99.90
42187;DHT22;27858;51.414;0.018;2023-03-29T12:03:41;13.70;99.90
42187;DHT22;27858;51.414;0.018;2023-03-29T12:08:59;13.20;99.90
42187;DHT22;27858;51.414;0.018;2023-03-29T12:11:47;13.50;99.90
42187;DHT22;27858;51.414;0.018;2023-03-29T12:17:08;13.50;99.90
42187;DHT22;27858;51.414;0.018;2023-03-29T12:19:46;13.30;99.90
42187;DHT22;27858;51.414;0.018;2023-03-29T12:22:14;13.50;99.90
42187;DHT22;27858;51.414;0.018;2023-03-29T12:24:42;13.80;99.90
42187;DHT22;27858;51.414;0.018;2023-03-29T12:33:17;14.20;99.90
42187;DHT22;27858;51.414;0.018;2023-03-29T12:36:03;14.00;99.90
42187;DHT22;27858;51.414;0.018;2023-03-29T12:38:33;14.00;99.90
42187;DHT22;27858;51.414;0.018;2023-03-29T12:41:01;14.10;99.90
42187;DHT22;27858;51.414;0.018;2023-03-29T12:43:40;14.10;99.90
42187;DHT22;27858;51.414;0.018;2023-03-29T12:46:23;14.10;99.90
42187;DHT22;27858;51.414;0.018;2023-03-29T12:48:56;14.30;99.90
42187;DHT22;27858;51.414;0.018;2023-03-29T12:51:29;14.10;99.90
42187;DHT22;27858;51.414;0.018;2023-03-29T12:54:04;14.30;99.90
42187;DHT22;27858;51.414;0.018;2023-03-29T12:56:51;14.40;99.90
42187;DHT22;27858;51.414;0.018;2023-03-29T12:59:34;14.40;99.90
42187;DHT22;27858;51.414;0.018;2023-03-29T13:09:51;14.60;99.90
42187;DHT22;27858;51.414;0.018;2023-03-29T13:12:27;14.60;99.90
42187;DHT22;27858;51.414;0.018;2023-03-29T13:15:04;14.40;99.90
42187;DHT22;27858;51.414;0.018;2023-03-29T13:20:28;14.70;99.90
42187;DHT22;27858;51.414;0.018;2023-03-29T13:28:37;14.60;99.90
42187;DHT22;27858;51.414;0.018;2023-03-29T13:31:23;14.60;99.90
42187;DHT22;27858;51.414;0.018;2023-03-29T13:39:20;14.70;99.90
42187;DHT22;27858;51.414;0.018;2023-03-29T13:41:51;14.50;99.90
42187;DHT22;27858;51.414;0.018;2023-03-29T13:44:37;14.50;99.90
42187;DHT22;27858;51.414;0.018;2023-03-29T13:50:05;14.40;99.90
42187;DHT22;27858;51.414;0.018;2023-03-29T13:52:40;14.60;99.90
42187;DHT22;27858;51.414;0.018;2023-03-29T13:58:04;14.80;99.90
42187;DHT22;27858;51.414;0.018;2023-03-29T14:00:37;15.00;99.90
42187;DHT22;27858;51.414;0.018;2023-03-29T14:03:20;15.00;99.90
42187;DHT22;27858;51.414;0.018;2023-03-29T14:06:00;15.00;99.90
42187;DHT22;27858;51.414;0.018;2023-03-29T14:08:38;15.00;99.90
42187;DHT22;27858;51.414;0.018;2023-03-29T14:11:11;15.00;99.90
42187;DHT22;27858;51.414;0.018;2023-03-29T14:13:42;14.80;99.90
42187;DHT22;27858;51.414;0.018;2023-03-29T14:16:10;14.70;99.90
42187;DHT22;27858;51.414;0.018;2023-03-29T14:18:43;14.80;99.90
42187;DHT22;27858;51.414;0.018;2023-03-29T14:21:20;14.80;99.90
42187;DHT22;27858;51.414;0.018;2023-03-29T14:23:57;14.70;99.90
42187;DHT22;27858;51.414;0.018;2023-03-29T14:26:30;14.60;99.90
42187;DHT22;27858;51.414;0.018;2023-03-29T14:28:59;14.50;99.90
42187;DHT22;27858;51.414;0.018;2023-03-29T14:31:35;14.60;99.90
42187;DHT22;27858;51.414;0.018;2023-03-29T14:34:05;14.50;99.90
42187;DHT22;27858;51.414;0.018;2023-03-29T14:36:33;14.50;99.90
42187;DHT22;27858;51.414;0.018;2023-03-29T14:39:07;14.60;99.90
42187;DHT22;27858;51.414;0.018;2023-03-29T14:41:38;14.60;99.90
42187;DHT22;27858;51.414;0.018;2023-03-29T14:44:06;14.70;99.90
42187;DHT22;27858;51.414;0.018;2023-03-29T14:46:34;14.60;99.90
42187;DHT22;27858;51.414;0.018;2023-03-29T14:49:02;14.60;99.90
42187;DHT22;27858;51.414;0.018;2023-03-29T14:51:33;14.60;99.90
42187;DHT22;27858;51.414;0.018;2023-03-29T14:54:02;14.80;99.90
42187;DHT22;27858;51.414;0.018;2023-03-29T14:56:30;14.80;99.90
42187;DHT22;27858;51.414;0.018;2023-03-29T14:59:00;14.80;99.90
42187;DHT22;27858;51.414;0.018;2023-03-29T15:01:28;14.90;99.90
42187;DHT22;27858;51.414;0.018;2023-03-29T15:04:08;15.00;99.90
42187;DHT22;27858;51.414;0.018;2023-03-29T15:06:41;15.00;99.90
42187;DHT22;27858;51.414;0.018;2023-03-29T15:09:16;15.00;99.90
42187;DHT22;27858;51.414;0.018;2023-03-29T15:11:53;15.10;99.90
42187;DHT22;27858;51.414;0.018;2023-03-29T15:14:21;15.10;99.90
42187;DHT22;27858;51.414;0.018;2023-03-29T15:16:50;15.10;99.90
42187;DHT22;27858;51.414;0.018;2023-03-29T15:19:21;15.10;99.90
42187;DHT22;27858;51.414;0.018;2023-03-29T15:21:51;15.00;99.90
42187;DHT22;27858;51.414;0.018;2023-03-29T15:24:27;14.90;99.90
42187;DHT22;27858;51.414;0.018;2023-03-29T15:27:23;14.90;99.90
42187;DHT22;27858;51.414;0.018;2023-03-29T15:29:59;15.00;99.90
42187;DHT22;27858;51.414;0.018;2023-03-29T15:32:33;15.00;99.90
42187;DHT22;27858;51.414;0.018;2023-03-29T15:35:02;15.00;99.90
42187;DHT22;27858;51.414;0.018;2023-03-29T15:37:34;15.10;99.90
42187;DHT22;27858;51.414;0.018;2023-03-29T15:40:02;15.10;99.90
42187;DHT22;27858;51.414;0.018;2023-03-29T15:42:35;15.00;99.90
42187;DHT22;27858;51.414;0.018;2023-03-29T15:45:04;15.10;99.90
42187;DHT22;27858;51.414;0.018;2023-03-29T15:47:34;15.10;99.90
42187;DHT22;27858;51.414;0.018;2023-03-29T15:50:01;15.00;99.90
42187;DHT22;27858;51.414;0.018;2023-03-29T15:52:27;15.00;99.90
42187;DHT22;27858;51.414;0.018;2023-03-29T15:54:54;15.00;99.90
42187;DHT22;27858;51.414;0.018;2023-03-29T15:57:21;15.00;99.90
42187;DHT22;27858;51.414;0.018;2023-03-29T15:59:48;15.00;99.90
42187;DHT22;27858;51.414;0.018;2023-03-29T16:02:15;14.90;99.90
42187;DHT22;27858;51.414;0.018;2023-03-29T16:04:43;14.80;99.90
42187;DHT22;27858;51.414;0.018;2023-03-29T16:07:13;14.80;99.90
42187;DHT22;27858;51.414;0.018;2023-03-29T16:09:41;14.80;99.90
42187;DHT22;27858;51.414;0.018;2023-03-29T16:12:09;14.80;99.90
42187;DHT22;27858;51.414;0.018;2023-03-29T16:14:36;14.90;99.90
42187;DHT22;27858;51.414;0.018;2023-03-29T16:17:03;14.90;99.90
42187;DHT22;27858;51.414;0.018;2023-03-29T16:19:32;15.00;99.90
42187;DHT22;27858;51.414;0.018;2023-03-29T16:22:01;14.90;99.90
42187;DHT22;27858;51.414;0.018;2023-03-29T16:24:30;15.00;99.90
42187;DHT22;27858;51.414;0.018;2023-03-29T16:26:58;15.00;99.90
42187;DHT22;27858;51.414;0.018;2023-03-29T16:29:25;15.10;99.90
42187;DHT22;27858;51.414;0.018;2023-03-29T16:31:52;15.00;99.90
42187;DHT22;27858;51.414;0.018;2023-03-29T16:34:20;15.00;99.90
42187;DHT22;27858;51.414;0.018;2023-03-29T16:36:48;15.00;99.90
42187;DHT22;27858;51.414;0.018;2023-03-29T16:39:16;15.00;99.90
42187;DHT22;27858;51.414;0.018;2023-03-29T16:41:44;15.00;99.90
42187;DHT22;27858;51.414;0.018;2023-03-29T16:44:21;15.00;99.90
42187;DHT22;27858;51.414;0.018;2023-03-29T16:47:01;15.00;99.90
42187;DHT22;27858;51.414;0.018;2023-03-29T16:49:43;14.90;99.90
42187;DHT22;27858;51.414;0.018;2023-03-29T16:52:14;14.80;99.90
42187;DHT22;27858;51.414;0.018;2023-03-29T16:54:44;14.80;99.90
42187;DHT22;27858;51.414;0.018;2023-03-29T16:57:14;14.80;99.90
42187;DHT22;27858;51.414;0.018;2023-03-29T16:59:41;14.80;99.90
42187;DHT22;27858;51.414;0.018;2023-03-29T17:02:12;14.70;99.90
42187;DHT22;27858;51.414;0.018;2023-03-29T17:04:39;14.80;99.90
42187;DHT22;27858;51.414;0.018;2023-03-29T17:07:06;14.90;99.90
42187;DHT22;27858;51.414;0.018;2023-03-29T17:09:35;15.00;99.90
42187;DHT22;27858;51.414;0.018;2023-03-29T17:12:06;14.90;99.90
42187;DHT22;27858;51.414;0.018;2023-03-29T17:14:33;14.90;99.90
42187;DHT22;27858;51.414;0.018;2023-03-29T17:17:00;14.80;99.90
42187;DHT22;27858;51.414;0.018;2023-03-29T17:19:36;14.80;99.90
42187;DHT22;27858;51.414;0.018;2023-03-29T17:22:03;14.80;99.90
42187;DHT22;27858;51.414;0.018;2023-03-29T17:24:30;14.70;99.90
42187;DHT22;27858;51.414;0.018;2023-03-29T17:26:57;14.70;99.90
42187;DHT22;27858;51.414;0.018;2023-03-29T17:29:24;14.70;99.90
42187;DHT22;27858;51.414;0.018;2023-03-29T17:31:53;14.60;99.90
42187;DHT22;27858;51.414;0.018;2023-03-29T17:34:20;14.50;99.90
42187;DHT22;27858;51.414;0.018;2023-03-29T17:36:47;14.40;99.90
42187;DHT22;27858;51.414;0.018;2023-03-29T17:39:14;14.40;99.90
42187;DHT22;27858;51.414;0.018;2023-03-29T17:41:45;14.40;99.90
42187;DHT22;27858;51.414;0.018;2023-03-29T17:44:12;14.40;99.90
42187;DHT22;27858;51.414;0.018;2023-03-29T17:46:39;14.40;99.90
42187;DHT22;27858;51.414;0.018;2023-03-29T17:49:06;14.40;99.90
42187;DHT22;27858;51.414;0.018;2023-03-29T17:51:33;14.30;99.90
42187;DHT22;27858;51.414;0.018;2023-03-29T17:54:01;13.90;99.90
42187;DHT22;27858;51.414;0.018;2023-03-29T17:56:28;14.00;99.90
42187;DHT22;27858;51.414;0.018;2023-03-29T17:58:55;13.90;99.90
42187;DHT22;27858;51.414;0.018;2023-03-29T18:01:27;13.70;99.90
42187;DHT22;27858;51.414;0.018;2023-03-29T18:03:55;13.30;99.90
42187;DHT22;27858;51.414;0.018;2023-03-29T18:06:22;13.40;99.90
42187;DHT22;27858;51.414;0.018;2023-03-29T18:08:49;13.20;99.90
42187;DHT22;27858;51.414;0.018;2023-03-29T18:11:18;13.50;99.90
42187;DHT22;27858;51.414;0.018;2023-03-29T18:13:56;13.30;99.90
42187;DHT22;27858;51.414;0.018;2023-03-29T18:16:23;13.10;99.90
42187;DHT22;27858;51.414;0.018;2023-03-29T18:18:50;12.90;99.90
42187;DHT22;27858;51.414;0.018;2023-03-29T18:21:18;12.80;99.90
42187;DHT22;27858;51.414;0.018;2023-03-29T18:23:46;13.10;99.90
42187;DHT22;27858;51.414;0.018;2023-03-29T18:26:14;12.90;99.90
42187;DHT22;27858;51.414;0.018;2023-03-29T18:28:43;13.20;99.90
42187;DHT22;27858;51.414;0.018;2023-03-29T18:31:13;13.10;99.90
42187;DHT22;27858;51.414;0.018;2023-03-29T18:33:40;12.60;99.90
42187;DHT22;27858;51.414;0.018;2023-03-29T18:36:08;12.50;99.90
42187;DHT22;27858;51.414;0.018;2023-03-29T18:38:39;12.80;99.90
42187;DHT22;27858;51.414;0.018;2023-03-29T18:41:11;13.10;99.90
42187;DHT22;27858;51.414;0.018;2023-03-29T18:43:39;12.40;99.90
42187;DHT22;27858;51.414;0.018;2023-03-29T18:46:07;12.40;99.90
42187;DHT22;27858;51.414;0.018;2023-03-29T18:48:37;12.70;99.90
42187;DHT22;27858;51.414;0.018;2023-03-29T18:51:05;12.50;99.90
42187;DHT22;27858;51.414;0.018;2023-03-29T18:53:34;12.70;99.90
42187;DHT22;27858;51.414;0.018;2023-03-29T18:56:02;12.00;99.90
42187;DHT22;27858;51.414;0.018;2023-03-29T18:58:30;12.00;99.90
42187;DHT22;27858;51.414;0.018;2023-03-29T19:01:01;12.30;99.90
42187;DHT22;27858;51.414;0.018;2023-03-29T19:03:31;11.70;99.90
42187;DHT22;27858;51.414;0.018;2023-03-29T19:05:59;11.50;99.90
42187;DHT22;27858;51.414;0.018;2023-03-29T19:08:27;11.60;99.90
42187;DHT22;27858;51.414;0.018;2023-03-29T19:11:03;12.30;99.90
42187;DHT22;27858;51.414;0.018;2023-03-29T19:13:31;11.60;99.90
42187;DHT22;27858;51.414;0.018;2023-03-29T19:15:58;12.20;99.90
42187;DHT22;27858;51.414;0.018;2023-03-29T19:18:26;12.20;99.90
42187;DHT22;27858;51.414;0.018;2023-03-29T19:20:54;12.20;99.90
42187;DHT22;27858;51.414;0.018;2023-03-29T19:23:23;12.00;99.90
42187;DHT22;27858;51.414;0.018;2023-03-29T19:25:58;12.10;99.90
42187;DHT22;27858;51.414;0.018;2023-03-29T19:28:26;11.90;99.90
42187;DHT22;27858;51.414;0.018;2023-03-29T19:30:55;11.90;99.90
42187;DHT22;27858;51.414;0.018;2023-03-29T19:33:22;11.40;99.90
42187;DHT22;27858;51.414;0.018;2023-03-29T19:35:49;11.70;99.90
42187;DHT22;27858;51.414;0.018;2023-03-29T19:38:20;11.50;99.90
42187;DHT22;27858;51.414;0.018;2023-03-29T19:40:48;11.30;99.90
42187;DHT22;27858;51.414;0.018;2023-03-29T19:43:16;12.00;99.90
42187;DHT22;27858;51.414;0.018;2023-03-29T19:45:48;12.10;99.90
42187;DHT22;27858;51.414;0.018;2023-03-29T19:48:16;11.50;99.90
42187;DHT22;27858;51.414;0.018;2023-03-29T19:50:46;11.40;99.90
42187;DHT22;27858;51.414;0.018;2023-03-29T19:53:13;12.00;99.90
42187;DHT22;27858;51.414;0.018;2023-03-29T19:55:42;12.00;99.90
42187;DHT22;27858;51.414;0.018;2023-03-29T19:58:12;12.00;99.90
42187;DHT22;27858;51.414;0.018;2023-03-29T20:00:39;11.30;99.90
42187;DHT22;27858;51.414;0.018;2023-03-29T20:03:07;11.90;99.90
42187;DHT22;27858;51.414;0.018;2023-03-29T20:05:37;11.30;99.90
42187;DHT22;27858;51.414;0.018;2023-03-29T20:08:05;11.50;99.90
42187;DHT22;27858;51.414;0.018;2023-03-29T20:10:33;11.50;99.90
42187;DHT22;27858;51.414;0.018;2023-03-29T20:13:01;11.80;99.90
42187;DHT22;27858;51.414;0.018;2023-03-29T20:15:28;11.50;99.90
42187;DHT22;27858;51.414;0.018;2023-03-29T20:17:55;12.10;99.90
42187;DHT22;27858;51.414;0.018;2023-03-29T20:20:25;11.60;99.90
42187;DHT22;27858;51.414;0.018;2023-03-29T20:22:52;11.50;99.90
42187;DHT22;27858;51.414;0.018;2023-03-29T20:25:34;11.60;99.90
42187;DHT22;27858;51.414;0.018;2023-03-29T20:28:02;11.70;99.90
42187;DHT22;27858;51.414;0.018;2023-03-29T20:30:30;12.20;99.90
42187;DHT22;27858;51.414;0.018;2023-03-29T20:32:57;12.00;99.90
42187;DHT22;27858;51.414;0.018;2023-03-29T20:35:24;12.30;99.90
42187;DHT22;27858;51.414;0.018;2023-03-29T20:37:51;11.70;99.90
42187;DHT22;27858;51.414;0.018;2023-03-29T20:40:21;12.00;99.90
42187;DHT22;27858;51.414;0.018;2023-03-29T20:42:48;11.60;99.90
42187;DHT22;27858;51.414;0.018;2023-03-29T20:45:15;11.60;99.90
42187;DHT22;27858;51.414;0.018;2023-03-29T20:47:46;12.40;99.90
42187;DHT22;27858;51.414;0.018;2023-03-29T20:50:22;11.70;99.90
42187;DHT22;27858;51.414;0.018;2023-03-29T20:52:53;11.90;99.90
42187;DHT22;27858;51.414;0.018;2023-03-29T20:55:23;11.80;99.90
42187;DHT22;27858;51.414;0.018;2023-03-29T20:57:52;12.40;99.90
42187;DHT22;27858;51.414;0.018;2023-03-29T21:00:19;11.90;99.90
42187;DHT22;27858;51.414;0.018;2023-03-29T21:02:48;11.80;99.90
42187;DHT22;27858;51.414;0.018;2023-03-29T21:05:15;12.50;99.90
42187;DHT22;27858;51.414;0.018;2023-03-29T21:07:42;11.80;99.90
42187;DHT22;27858;51.414;0.018;2023-03-29T21:10:14;12.00;99.90
42187;DHT22;27858;51.414;0.018;2023-03-29T21:12:41;12.60;99.90
42187;DHT22;27858;51.414;0.018;2023-03-29T21:15:09;11.90;99.90
42187;DHT22;27858;51.414;0.018;2023-03-29T21:17:38;12.00;99.90
42187;DHT22;27858;51.414;0.018;2023-03-29T21:20:16;12.10;99.90
42187;DHT22;27858;51.414;0.018;2023-03-29T21:22:44;12.10;99.90
42187;DHT22;27858;51.414;0.018;2023-03-29T21:25:13;12.10;99.90
42187;DHT22;27858;51.414;0.018;2023-03-29T21:27:41;12.30;99.90